Time;durP1;ratioP1;P1;durP2;ratioP2;P2;SDS_P1;SDS_P2;PMS_P1;PMS_P2;Temp;Humidity;BMP_temperature;BMP_pressure;BME280_temperature;BME280_humidity;BME280_pressure;Samples;Min_cycle;Max_cycle;Signal;HPM_P1;HPM_P2
2022/12/16 00:00:24;;;;;;;50.80;21.65;;;;;;;4.37;100.00;62453.75;5001526;28;20195;-73
2022/12/16 00:02:51;;;;;;;37.53;19.17;;;;;;;4.35;100.00;62443.59;4997901;28;20508;-72
2022/12/16 00:05:19;;;;;;;31.27;18.35;;;;;;;4.29;100.00;62443.00;5003896;28;20539;-73
2022/12/16 00:07:46;;;;;;;32.15;19.83;;;;;;;4.37;100.00;62446.19;5002495;28;20208;-74
2022/12/16 00:10:15;;;;;;;31.98;17.83;;;;;;;4.39;100.00;62447.72;5002250;28;20202;-71
2022/12/16 00:12:41;;;;;;;31.85;17.20;;;;;;;4.49;100.00;62465.56;5004341;28;20211;-72
2022/12/16 00:15:09;;;;;;;30.85;16.55;;;;;;;4.33;100.00;62444.09;5003524;28;20242;-72
2022/12/16 00:17:36;;;;;;;28.80;16.38;;;;;;;4.39;100.00;62455.28;5003831;28;20239;-72
2022/12/16 00:20:04;;;;;;;25.65;15.43;;;;;;;4.44;100.00;62455.91;4998337;28;20228;-73
2022/12/16 00:22:31;;;;;;;24.85;16.02;;;;;;;4.45;100.00;62454.41;5003753;28;20455;-72
2022/12/16 00:24:58;;;;;;;24.27;15.52;;;;;;;4.49;100.00;62461.06;5001967;28;20210;-73
2022/12/16 00:27:26;;;;;;;35.03;19.40;;;;;;;4.56;100.00;62468.25;5002936;28;20226;-72
2022/12/16 00:29:53;;;;;;;29.30;16.73;;;;;;;4.53;100.00;62465.19;4998627;28;20236;-72
2022/12/16 00:32:20;;;;;;;26.92;17.00;;;;;;;4.51;100.00;62462.59;5005371;28;20219;-73
2022/12/16 00:34:47;;;;;;;27.67;16.23;;;;;;;4.54;100.00;62465.69;5006511;28;20295;-72
2022/12/16 00:37:13;;;;;;;29.27;17.67;;;;;;;4.55;100.00;62467.25;5006177;28;20246;-73
2022/12/16 00:39:40;;;;;;;26.90;17.05;;;;;;;4.54;100.00;62468.72;5002549;28;20273;-72
2022/12/16 00:42:07;;;;;;;26.52;17.52;;;;;;;4.19;100.00;62429.66;5006239;28;20226;-73
2022/12/16 00:44:36;;;;;;;24.38;16.35;;;;;;;4.38;100.00;62444.69;5005687;28;20510;-72
2022/12/16 00:47:02;;;;;;;27.63;17.08;;;;;;;4.40;100.00;62446.75;4997839;28;20540;-73
2022/12/16 00:49:29;;;;;;;36.03;18.00;;;;;;;4.40;100.00;62454.31;5008060;28;20226;-73
2022/12/16 00:51:56;;;;;;;23.85;15.07;;;;;;;4.39;100.00;62448.25;5006681;28;20246;-74
2022/12/16 00:54:23;;;;;;;15.77;10.40;;;;;;;4.44;100.00;62453.38;5002619;28;20199;-73
2022/12/16 00:56:50;;;;;;;19.38;11.23;;;;;;;4.45;100.00;62456.94;5006062;28;20226;-72
2022/12/16 00:59:17;;;;;;;14.60;10.25;;;;;;;4.31;100.00;62442.03;5006218;28;20261;-73
2022/12/16 01:01:45;;;;;;;25.52;15.82;;;;;;;4.25;100.00;62433.84;5005749;28;20235;-72
2022/12/16 01:04:12;;;;;;;23.60;13.82;;;;;;;4.24;100.00;62437.34;5006116;28;20366;-72
2022/12/16 01:06:38;;;;;;;18.42;13.02;;;;;;;4.25;100.00;62435.84;5008237;28;20242;-73
2022/12/16 01:09:05;;;;;;;21.00;13.25;;;;;;;4.23;100.00;62434.28;5006350;28;20206;-73
2022/12/16 01:11:32;;;;;;;26.98;16.50;;;;;;;4.24;100.00;62434.81;5005712;28;20219;-72
2022/12/16 01:13:59;;;;;;;25.98;15.85;;;;;;;4.21;100.00;62434.75;5004574;28;20206;-73
2022/12/16 01:16:26;;;;;;;24.85;16.17;;;;;;;4.24;100.00;62434.81;5006200;28;20227;-73
2022/12/16 01:18:55;;;;;;;28.08;17.88;;;;;;;4.17;100.00;62425.63;5002643;28;20227;-73
2022/12/16 01:21:22;;;;;;;32.70;19.05;;;;;;;4.19;100.00;62427.16;5004740;28;20226;-72
2022/12/16 01:23:49;;;;;;;31.70;21.15;;;;;;;4.20;100.00;62431.22;5000599;28;20195;-73
2022/12/16 01:26:17;;;;;;;33.83;18.80;;;;;;;4.17;100.00;62428.13;5005202;28;20223;-72
2022/12/16 01:28:44;;;;;;;37.00;22.95;;;;;;;4.20;100.00;62430.69;5003340;28;20215;-73
2022/12/16 01:31:11;;;;;;;37.58;22.67;;;;;;;4.25;100.00;62436.34;5005183;28;20607;-73
2022/12/16 01:33:38;;;;;;;37.67;22.48;;;;;;;4.24;100.00;62434.81;5007013;28;20222;-73
2022/12/16 01:36:11;;;;;;;38.67;23.70;;;;;;;4.37;100.00;62448.69;5005369;28;20270;-73
2022/12/16 01:38:38;;;;;;;55.42;23.48;;;;;;;4.22;100.00;62432.75;5001330;28;20223;-72
2022/12/16 01:41:06;;;;;;;182.00;36.67;;;;;;;3.77;100.00;62388.97;5004764;28;20234;-72
2022/12/16 01:43:37;;;;;;;95.07;31.90;;;;;;;3.82;100.00;62387.09;5004461;28;20206;-71
2022/12/16 01:46:08;;;;;;;135.50;32.78;;;;;;;3.70;100.00;62376.75;5001793;28;20299;-72
2022/12/16 01:48:44;;;;;;;47.45;27.55;;;;;;;3.73;100.00;62387.41;5001674;28;20266;-72
2022/12/16 01:51:18;;;;;;;53.58;27.50;;;;;;;3.79;100.00;62391.03;5005476;28;20455;-72
2022/12/16 01:53:48;;;;;;;40.38;24.35;;;;;;;3.85;100.00;62395.19;5005461;28;20195;-73
2022/12/16 01:56:17;;;;;;;44.65;24.60;;;;;;;3.87;100.00;62394.22;5005259;28;20225;-72
2022/12/16 01:58:45;;;;;;;34.83;22.33;;;;;;;3.89;100.00;62401.84;5004507;28;20238;-74
2022/12/16 02:01:14;;;;;;;53.45;30.13;;;;;;;3.92;100.00;62399.38;5005126;28;20282;-74
2022/12/16 02:03:42;;;;;;;45.75;27.35;;;;;;;3.95;100.00;62408.00;5004959;28;20304;-73
2022/12/16 02:06:09;;;;;;;43.28;26.60;;;;;;;4.08;100.00;62415.81;5004906;28;20274;-72
2022/12/16 02:08:38;;;;;;;50.28;26.75;;;;;;;4.13;100.00;62426.00;5005385;28;20207;-72
2022/12/16 02:11:33;;;;;;;43.50;25.05;;;;;;;4.18;100.00;62426.13;5005062;28;20215;-72
2022/12/16 02:14:18;;;;;;;47.63;28.02;;;;;;;4.16;100.00;62424.56;5004938;28;20210;-72
2022/12/16 02:16:53;;;;;;;44.53;26.70;;;;;;;4.20;100.00;62428.69;5000210;28;20286;-71
2022/12/16 02:19:56;;;;;;;39.88;23.77;;;;;;;4.19;100.00;62425.16;5004568;28;20230;-72
2022/12/16 02:22:35;;;;;;;34.67;18.70;;;;;;;4.36;100.00;62447.69;4992406;28;20229;-73
2022/12/16 02:25:32;;;;;;;29.40;17.77;;;;;;;4.36;100.00;62444.66;5001178;28;20214;-72
2022/12/16 02:28:05;;;;;;;25.98;14.90;;;;;;;4.45;100.00;62453.91;5002551;28;20200;-71
2022/12/16 02:30:52;;;;;;;22.20;14.77;;;;;;;4.53;100.00;62465.19;5004005;28;20290;-72
2022/12/16 02:33:47;;;;;;;39.25;22.67;;;;;;;4.39;100.00;62450.25;5003484;28;20199;-72
2022/12/16 02:36:25;;;;;;;47.50;27.00;;;;;;;4.41;100.00;62449.78;4995555;28;20223;-74
2022/12/16 02:38:57;;;;;;;44.67;25.92;;;;;;;4.43;100.00;62456.88;4999903;28;20219;-72
2022/12/16 02:41:32;;;;;;;45.20;28.02;;;;;;;4.43;100.00;62451.84;5004501;28;20535;-73
2022/12/16 02:44:03;;;;;;;42.80;24.50;;;;;;;4.39;100.00;62447.72;4999654;28;20203;-72
2022/12/16 02:46:33;;;;;;;38.15;21.73;;;;;;;4.45;100.00;62459.44;5004290;28;20544;-72
2022/12/16 02:49:06;;;;;;;40.53;24.77;;;;;;;4.55;100.00;62461.69;5004873;28;20192;-72
2022/12/16 02:51:36;;;;;;;35.55;21.73;;;;;;;4.52;100.00;62461.13;5003657;28;20223;-73
2022/12/16 02:54:03;;;;;;;22.10;15.70;;;;;;;4.53;100.00;62467.19;5002325;28;20195;-72
2022/12/16 02:56:46;;;;;;;25.30;16.45;;;;;;;4.58;100.00;62470.31;5004395;28;20550;-73
2022/12/16 02:59:23;;;;;;;33.17;22.00;;;;;;;4.62;100.00;62473.94;5003800;28;20227;-72
2022/12/16 03:01:58;;;;;;;36.92;23.65;;;;;;;4.64;100.00;62476.00;5004575;28;20300;-72
2022/12/16 03:04:32;;;;;;;40.45;24.67;;;;;;;4.67;100.00;62479.06;5004286;28;20380;-74
2022/12/16 03:07:00;;;;;;;34.47;19.45;;;;;;;4.67;100.00;62481.59;5002491;28;20406;-72
2022/12/16 03:09:32;;;;;;;38.50;23.30;;;;;;;4.69;100.00;62479.13;5003422;28;20195;-71
2022/12/16 03:12:02;;;;;;;36.65;23.40;;;;;;;4.69;100.00;62483.66;5003347;28;20540;-73
2022/12/16 03:14:33;;;;;;;29.35;18.52;;;;;;;4.71;100.00;62483.19;5000305;28;20218;-72
2022/12/16 03:17:02;;;;;;;18.08;11.80;;;;;;;4.26;100.00;62437.38;5004273;28;20223;-72
2022/12/16 03:19:30;;;;;;;17.40;11.10;;;;;;;4.37;100.00;62450.72;5003508;28;20258;-72
2022/12/16 03:22:02;;;;;;;19.27;13.35;;;;;;;4.49;100.00;62458.53;5001491;28;20226;-72
2022/12/16 03:24:31;;;;;;;22.15;14.90;;;;;;;4.56;100.00;62462.69;5001444;28;20274;-72
2022/12/16 03:27:06;;;;;;;24.25;14.95;;;;;;;4.60;100.00;62469.34;4999336;28;20224;-73
2022/12/16 03:29:41;;;;;;;40.30;21.65;;;;;;;4.53;100.00;62467.69;4984499;28;20196;-72
2022/12/16 03:32:14;;;;;;;91.90;27.83;;;;;;;4.40;100.00;62451.78;4990747;28;20279;-72
2022/12/16 03:34:45;;;;;;;72.57;29.27;;;;;;;4.42;100.00;62451.31;5004051;28;20453;-72
2022/12/16 03:37:13;;;;;;;50.13;28.00;;;;;;;4.29;100.00;62437.97;5003627;28;20451;-73
2022/12/16 03:39:45;;;;;;;36.65;22.50;;;;;;;4.35;100.00;62449.16;5000209;28;20234;-72
2022/12/16 03:42:14;;;;;;;42.95;24.67;;;;;;;4.45;100.00;62451.38;4993031;28;20258;-71
2022/12/16 03:44:42;;;;;;;48.03;27.10;;;;;;;4.41;100.00;62452.31;5002516;28;20227;-72
2022/12/16 03:47:11;;;;;;;76.43;28.98;;;;;;;4.46;100.00;62455.44;5003089;28;20237;-72
2022/12/16 03:49:37;;;;;;;71.05;30.15;;;;;;;4.39;100.00;62450.25;4999351;28;20199;-72
2022/12/16 03:52:04;;;;;;;193.13;35.63;;;;;;;4.35;100.00;62446.66;5003589;28;20219;-72
2022/12/16 03:54:32;;;;;;;150.23;35.72;;;;;;;4.31;100.00;62439.50;5003637;28;20195;-72
2022/12/16 03:56:58;;;;;;;283.13;38.45;;;;;;;3.98;100.00;62410.59;5003153;28;20277;-71
2022/12/16 03:59:25;;;;;;;274.55;39.80;;;;;;;4.10;100.00;62415.38;5001725;28;21248;-72
2022/12/16 04:01:52;;;;;;;120.57;32.92;;;;;;;4.22;100.00;62430.75;5003437;28;20231;-72
2022/12/16 04:04:21;;;;;;;124.38;32.63;;;;;;;4.27;100.00;62435.91;5002867;28;20210;-72
2022/12/16 04:07:18;;;;;;;135.85;34.60;;;;;;;4.27;100.00;62440.41;5004919;28;20591;-72
2022/12/16 04:09:35;;;;;;;93.57;31.83;;;;;;;4.28;100.00;62441.47;4989169;28;20181;-72
2022/12/16 04:25:47;;;;;;;138.38;31.20;;;;;;;4.36;100.00;62447.16;5007165;28;20534;-72
2022/12/16 04:28:14;;;;;;;116.18;29.30;;;;;;;4.39;100.00;62450.25;5003948;28;20239;-73
2022/12/16 04:30:41;;;;;;;165.95;32.28;;;;;;;4.37;100.00;62443.66;5004596;28;20444;-72
